Time,TemperatureF,DewpointF,PressureIn,WindDirection,WindDirectionDegrees,WindSpeedMPH,WindSpeedGustMPH,Humidity,HourlyPrecipIn,Conditions,Clouds,dailyrainin,SoftwareType,DateUTC
2013-03-21 00:12:00,37.3,31.0,29.83,WSW,241,6.0,11.0,79,0.00,,,0.00,weatherlink.com 1.10,2013-03-21 04:12:00,
2013-03-21 00:27:00,37.6,32.0,29.84,West,270,7.0,13.0,80,0.00,,,0.00,weatherlink.com 1.10,2013-03-21 04:27:00,
2013-03-21 00:42:00,37.7,32.0,29.84,WSW,245,11.0,13.0,81,0.00,,,0.00,weatherlink.com 1.10,2013-03-21 04:42:00,
2013-03-21 00:57:00,37.7,33.0,29.84,WSW,252,10.0,11.0,82,0.00,,,0.00,weatherlink.com 1.10,2013-03-21 04:57:00,
2013-03-21 01:12:00,38.0,33.0,29.84,WSW,243,10.0,15.0,81,0.00,,,0.00,weatherlink.com 1.10,2013-03-21 05:12:00,
2013-03-21 01:27:00,38.0,33.0,29.84,WSW,250,8.0,15.0,81,0.00,,,0.00,weatherlink.com 1.10,2013-03-21 05:27:00,
2013-03-21 01:42:00,38.0,33.0,29.85,WSW,249,13.0,13.0,81,0.00,,,0.00,weatherlink.com 1.10,2013-03-21 05:42:00,
2013-03-21 01:57:00,38.1,33.0,29.85,WSW,249,11.0,13.0,82,0.00,,,0.00,weatherlink.com 1.10,2013-03-21 05:57:00,
2013-03-21 02:12:00,38.1,33.0,29.84,WSW,246,9.0,13.0,83,0.00,,,0.00,weatherlink.com 1.10,2013-03-21 06:12:00,
2013-03-21 02:27:00,38.0,33.0,29.83,West,259,4.0,9.0,83,0.00,,,0.00,weatherlink.com 1.10,2013-03-21 06:27:00,
2013-03-21 02:42:00,38.0,34.0,29.83,SW,232,6.0,8.0,84,0.00,,,0.00,weatherlink.com 1.10,2013-03-21 06:42:00,
2013-03-21 02:57:00,37.9,34.0,29.83,WSW,241,5.0,6.0,86,0.00,,,0.00,weatherlink.com 1.10,2013-03-21 06:57:00,
2013-03-21 03:12:00,37.7,34.0,29.82,WSW,252,2.0,5.0,87,0.00,,,0.00,weatherlink.com 1.10,2013-03-21 07:12:00,
2013-03-21 03:27:00,37.1,34.0,29.82,SW,231,0.0,3.0,88,0.00,,,0.00,weatherlink.com 1.10,2013-03-21 07:27:00,
2013-03-21 03:42:00,36.7,34.0,29.82,SW,229,0.0,2.0,89,0.00,,,0.00,weatherlink.com 1.10,2013-03-21 07:42:00,
2013-03-21 03:57:00,34.7,32.0,29.81,NE,44,0.0,2.0,89,0.00,,,0.00,weatherlink.com 1.10,2013-03-21 07:57:00,
2013-03-21 04:12:00,33.3,31.0,29.81,East,82,0.0,0.0,91,0.00,,,0.00,weatherlink.com 1.10,2013-03-21 08:12:00,
2013-03-21 04:27:00,31.7,30.0,29.80,East,82,0.0,0.0,92,0.00,,,0.00,weatherlink.com 1.10,2013-03-21 08:27:00,
2013-03-21 04:42:00,30.3,28.0,29.80,East,82,0.0,0.0,92,0.00,,,0.00,weatherlink.com 1.10,2013-03-21 08:42:00,
2013-03-21 04:57:00,29.3,28.0,29.79,NE,41,0.0,1.0,93,0.00,,,0.00,weatherlink.com 1.10,2013-03-21 08:57:00,
2013-03-21 05:12:00,29.0,28.0,29.79,NE,41,0.0,0.0,94,0.00,,,0.00,weatherlink.com 1.10,2013-03-21 09:12:00,
2013-03-21 05:27:00,29.5,28.0,29.79,NE,41,0.0,0.0,95,0.00,,,0.00,weatherlink.com 1.10,2013-03-21 09:27:00,
2013-03-21 05:42:00,28.5,27.0,29.79,NE,41,0.0,1.0,94,0.00,,,0.00,weatherlink.com 1.10,2013-03-21 09:42:00,
2013-03-21 05:57:00,28.4,27.0,29.80,NE,41,0.0,0.0,95,0.00,,,0.00,weatherlink.com 1.10,2013-03-21 09:57:00,
2013-03-21 06:12:00,28.3,27.0,29.80,NE,41,0.0,0.0,95,0.00,,,0.00,weatherlink.com 1.10,2013-03-21 10:12:00,
2013-03-21 06:27:00,27.4,26.0,29.79,NE,41,0.0,0.0,95,0.00,,,0.00,weatherlink.com 1.10,2013-03-21 10:27:00,
2013-03-21 06:42:00,27.0,26.0,29.79,NE,41,0.0,0.0,95,0.00,,,0.00,weatherlink.com 1.10,2013-03-21 10:42:00,
2013-03-21 06:57:00,26.6,25.0,29.79,NE,44,0.0,0.0,95,0.00,,,0.00,weatherlink.com 1.10,2013-03-21 10:57:00,
2013-03-21 07:12:00,27.0,26.0,29.79,North,8,0.0,1.0,96,0.00,,,0.00,weatherlink.com 1.10,2013-03-21 11:12:00,
2013-03-21 07:28:00,27.7,27.0,29.79,ENE,67,0.0,1.0,96,0.00,,,0.00,weatherlink.com 1.10,2013-03-21 11:28:00,
2013-03-21 07:42:00,29.6,29.0,29.79,NE,49,2.0,3.0,96,0.00,,,0.00,weatherlink.com 1.10,2013-03-21 11:42:00,
2013-03-21 07:57:00,31.6,30.0,29.79,NE,56,2.0,4.0,93,0.00,,,0.00,weatherlink.com 1.10,2013-03-21 11:57:00,
2013-03-21 08:12:00,33.3,30.0,29.79,NE,38,3.0,7.0,87,0.00,,,0.00,weatherlink.com 1.10,2013-03-21 12:12:00,
2013-03-21 08:28:00,35.2,30.0,29.79,NE,51,1.0,6.0,82,0.00,,,0.00,weatherlink.com 1.10,2013-03-21 12:28:00,
2013-03-21 08:43:00,36.3,29.0,29.78,NE,41,1.0,7.0,75,0.00,,,0.00,weatherlink.com 1.10,2013-03-21 12:43:00,
2013-03-21 08:58:00,36.6,28.0,29.78,ENE,64,2.0,7.0,72,0.00,,,0.00,weatherlink.com 1.10,2013-03-21 12:58:00,
2013-03-21 09:13:00,37.1,27.0,29.77,East,87,2.0,9.0,68,0.00,,,0.00,weatherlink.com 1.10,2013-03-21 13:13:00,
2013-03-21 09:28:00,37.1,27.0,29.77,ENE,60,4.0,8.0,67,0.00,,,0.00,weatherlink.com 1.10,2013-03-21 13:28:00,
2013-03-21 09:43:00,38.0,26.0,29.77,NNE,20,8.0,8.0,63,0.00,,,0.00,weatherlink.com 1.10,2013-03-21 13:43:00,
2013-03-21 09:58:00,38.3,27.0,29.76,ENE,64,5.0,12.0,63,0.00,,,0.00,weatherlink.com 1.10,2013-03-21 13:58:00,
2013-03-21 10:13:00,38.4,27.0,29.76,NNW,348,6.0,11.0,64,0.00,,,0.00,weatherlink.com 1.10,2013-03-21 14:13:00,
2013-03-21 10:28:00,39.3,27.0,29.75,NE,47,8.0,12.0,61,0.00,,,0.00,weatherlink.com 1.10,2013-03-21 14:28:00,
2013-03-21 10:43:00,38.9,26.0,29.74,ENE,63,10.0,12.0,61,0.00,,,0.00,weatherlink.com 1.10,2013-03-21 14:43:00,
2013-03-21 10:58:00,39.8,27.0,29.74,ENE,77,3.0,11.0,60,0.00,,,0.00,weatherlink.com 1.10,2013-03-21 14:58:00,
2013-03-21 11:13:00,40.3,27.0,29.73,NE,56,8.0,14.0,59,0.00,,,0.00,weatherlink.com 1.10,2013-03-21 15:13:00,
2013-03-21 11:28:00,40.9,27.0,29.73,NE,42,5.0,11.0,59,0.00,,,0.00,weatherlink.com 1.10,2013-03-21 15:28:00,
2013-03-21 11:43:00,39.2,27.0,29.72,ENE,58,5.0,15.0,63,0.00,,,0.00,weatherlink.com 1.10,2013-03-21 15:43:00,
2013-03-21 11:58:00,39.6,28.0,29.71,East,82,3.0,14.0,63,0.00,,,0.00,weatherlink.com 1.10,2013-03-21 15:58:00,
2013-03-21 12:13:00,39.3,28.0,29.70,ENE,59,15.0,16.0,63,0.00,,,0.00,weatherlink.com 1.10,2013-03-21 16:13:00,
2013-03-21 12:28:00,38.5,27.0,29.70,NE,54,12.0,17.0,64,0.00,,,0.00,weatherlink.com 1.10,2013-03-21 16:28:00,
2013-03-21 12:43:00,38.1,27.0,29.69,NE,37,6.0,15.0,65,0.00,,,0.00,weatherlink.com 1.10,2013-03-21 16:43:00,
2013-03-21 12:58:00,37.4,27.0,29.69,NE,39,8.0,15.0,66,0.00,,,0.00,weatherlink.com 1.10,2013-03-21 16:58:00,
2013-03-21 13:13:00,37.6,27.0,29.68,East,83,6.0,17.0,67,0.00,,,0.00,weatherlink.com 1.10,2013-03-21 17:13:00,
2013-03-21 13:29:00,37.4,28.0,29.68,ESE,105,2.0,17.0,68,0.00,,,0.00,weatherlink.com 1.10,2013-03-21 17:29:00,
2013-03-21 13:43:00,37.4,28.0,29.67,NNE,27,7.0,17.0,68,0.00,,,0.00,weatherlink.com 1.10,2013-03-21 17:43:00,
2013-03-21 13:58:00,37.4,28.0,29.66,ENE,75,4.0,17.0,68,0.00,,,0.00,weatherlink.com 1.10,2013-03-21 17:58:00,
2013-03-21 14:13:00,35.8,29.0,29.65,ENE,66,8.0,16.0,75,0.00,,,0.00,weatherlink.com 1.10,2013-03-21 18:13:00,
2013-03-21 14:28:00,36.6,29.0,29.64,NE,49,15.0,17.0,73,0.00,,,0.00,weatherlink.com 1.10,2013-03-21 18:28:00,
2013-03-21 14:43:00,36.5,29.0,29.64,East,97,4.0,14.0,74,0.00,,,0.00,weatherlink.com 1.10,2013-03-21 18:43:00,
2013-03-21 14:58:00,36.7,29.0,29.63,North,1,9.0,18.0,73,0.00,,,0.00,weatherlink.com 1.10,2013-03-21 18:58:00,
2013-03-21 15:13:00,36.9,29.0,29.62,NNE,27,11.0,16.0,74,0.00,,,0.00,weatherlink.com 1.10,2013-03-21 19:13:00,
2013-03-21 15:29:00,37.5,30.0,29.62,ENE,60,6.0,16.0,75,0.00,,,0.00,weatherlink.com 1.10,2013-03-21 19:29:00,
2013-03-21 15:44:00,37.5,31.0,29.61,ENE,68,6.0,19.0,77,0.00,,,0.00,weatherlink.com 1.10,2013-03-21 19:44:00,
2013-03-21 15:59:00,37.6,31.0,29.60,NE,46,5.0,20.0,76,0.00,,,0.00,weatherlink.com 1.10,2013-03-21 19:59:00,
2013-03-21 16:14:00,37.3,30.0,29.59,NNE,29,11.0,20.0,75,0.00,,,0.00,weatherlink.com 1.10,2013-03-21 20:14:00,
2013-03-21 16:29:00,37.4,30.0,29.59,East,94,5.0,20.0,74,0.00,,,0.00,weatherlink.com 1.10,2013-03-21 20:29:00,
2013-03-21 16:44:00,37.7,30.0,29.59,NE,43,5.0,20.0,73,0.00,,,0.00,weatherlink.com 1.10,2013-03-21 20:44:00,
2013-03-21 16:59:00,36.8,30.0,29.58,NE,38,10.0,18.0,76,0.00,,,0.00,weatherlink.com 1.10,2013-03-21 20:59:00,
2013-03-21 17:14:00,36.8,30.0,29.58,NE,41,13.0,17.0,77,0.00,,,0.00,weatherlink.com 1.10,2013-03-21 21:14:00,
2013-03-21 17:29:00,36.5,30.0,29.59,East,94,4.0,19.0,78,0.00,,,0.00,weatherlink.com 1.10,2013-03-21 21:29:00,
2013-03-21 17:44:00,35.5,30.0,29.59,NNE,23,10.0,15.0,80,0.00,,,0.00,weatherlink.com 1.10,2013-03-21 21:44:00,
2013-03-21 17:59:00,35.0,30.0,29.59,NE,53,10.0,18.0,83,0.00,,,0.00,weatherlink.com 1.10,2013-03-21 21:59:00,
2013-03-21 18:14:00,34.8,30.0,29.59,ENE,66,6.0,15.0,84,0.00,,,0.00,weatherlink.com 1.10,2013-03-21 22:14:00,
2013-03-21 18:29:00,34.8,30.0,29.59,NNE,23,12.0,15.0,84,0.00,,,0.00,weatherlink.com 1.10,2013-03-21 22:29:00,
2013-03-21 18:44:00,34.8,31.0,29.59,NE,42,6.0,16.0,85,0.00,,,0.00,weatherlink.com 1.10,2013-03-21 22:44:00,
2013-03-21 18:59:00,34.7,31.0,29.59,NE,41,10.0,14.0,85,0.00,,,0.00,weatherlink.com 1.10,2013-03-21 22:59:00,
2013-03-21 19:14:00,34.9,31.0,29.59,ENE,66,6.0,15.0,86,0.00,,,0.00,weatherlink.com 1.10,2013-03-21 23:14:00,
2013-03-21 19:29:00,35.1,31.0,29.59,ENE,60,7.0,16.0,86,0.00,,,0.00,weatherlink.com 1.10,2013-03-21 23:29:00,
2013-03-21 19:44:00,35.2,31.0,29.59,NNE,20,5.0,11.0,86,0.00,,,0.00,weatherlink.com 1.10,2013-03-21 23:44:00,
2013-03-21 19:59:00,35.5,31.0,29.59,NE,34,10.0,12.0,85,0.00,,,0.00,weatherlink.com 1.10,2013-03-21 23:59:00,
2013-03-21 20:14:00,35.8,32.0,29.59,NNE,30,9.0,12.0,85,0.00,,,0.00,weatherlink.com 1.10,2013-03-22 00:14:00,
2013-03-21 20:29:00,35.7,32.0,29.59,NNW,344,7.0,12.0,85,0.00,,,0.00,weatherlink.com 1.10,2013-03-22 00:29:00,
2013-03-21 20:44:00,35.7,32.0,29.59,North,358,9.0,11.0,85,0.00,,,0.00,weatherlink.com 1.10,2013-03-22 00:44:00,
2013-03-21 20:59:00,35.5,32.0,29.59,NE,46,12.0,13.0,86,0.00,,,0.00,weatherlink.com 1.10,2013-03-22 00:59:00,
2013-03-21 21:14:00,35.0,32.0,29.59,NNE,23,10.0,12.0,88,0.00,,,0.00,weatherlink.com 1.10,2013-03-22 01:14:00,
2013-03-21 21:29:00,34.2,32.0,29.59,NNW,335,7.0,13.0,90,0.00,,,0.00,weatherlink.com 1.10,2013-03-22 01:29:00,
2013-03-21 21:44:00,33.7,32.0,29.59,NNW,342,8.0,14.0,92,0.00,,,0.00,weatherlink.com 1.10,2013-03-22 01:44:00,
2013-03-21 21:58:00,33.1,32.0,29.58,NNE,15,6.0,11.0,94,0.00,,,0.00,weatherlink.com 1.10,2013-03-22 01:58:00,
2013-03-21 22:14:00,32.5,31.0,29.58,North,352,9.0,11.0,95,0.00,,,0.00,weatherlink.com 1.10,2013-03-22 02:14:00,
2013-03-21 22:29:00,32.3,31.0,29.57,NNE,19,9.0,11.0,96,0.00,,,0.00,weatherlink.com 1.10,2013-03-22 02:29:00,
2013-03-21 22:44:00,32.1,31.0,29.58,NNW,340,6.0,10.0,96,0.00,,,0.00,weatherlink.com 1.10,2013-03-22 02:44:00,
2013-03-21 22:59:00,32.0,31.0,29.57,NNW,344,2.0,10.0,96,0.00,,,0.00,weatherlink.com 1.10,2013-03-22 02:59:00,
2013-03-21 23:14:00,31.9,31.0,29.57,NNW,342,8.0,9.0,97,0.00,,,0.00,weatherlink.com 1.10,2013-03-22 03:14:00,
2013-03-21 23:29:00,31.9,31.0,29.57,NNW,337,5.0,11.0,97,0.00,,,0.00,weatherlink.com 1.10,2013-03-22 03:29:00,
2013-03-21 23:44:00,31.9,31.0,29.57,NNW,328,4.0,8.0,97,0.00,,,0.00,weatherlink.com 1.10,2013-03-22 03:44:00,
2013-03-21 23:59:00,31.9,31.0,29.57,NW,324,3.0,9.0,97,0.00,,,0.00,weatherlink.com 1.10,2013-03-22 03:59:00,